sensor_id;sensor_type;location;lat;lon;timestamp;P1;durP1;ratioP1;P2;durP2;ratioP2
2299;SDS011;1158;48.750;9.078;2022-08-21T00:02:25;6.67;;;3.47;;
2299;SDS011;1158;48.750;9.078;2022-08-21T00:04:53;6.10;;;4.00;;
2299;SDS011;1158;48.750;9.078;2022-08-21T00:07:21;6.17;;;3.53;;
2299;SDS011;1158;48.750;9.078;2022-08-21T00:09:47;5.10;;;3.83;;
2299;SDS011;1158;48.750;9.078;2022-08-21T00:12:14;5.93;;;3.70;;
2299;SDS011;1158;48.750;9.078;2022-08-21T00:14:41;10.73;;;3.70;;
2299;SDS011;1158;48.750;9.078;2022-08-21T00:17:08;7.53;;;3.80;;
2299;SDS011;1158;48.750;9.078;2022-08-21T00:19:36;6.10;;;3.63;;
2299;SDS011;1158;48.750;9.078;2022-08-21T00:22:02;6.53;;;4.10;;
2299;SDS011;1158;48.750;9.078;2022-08-21T00:24:29;7.77;;;4.00;;
2299;SDS011;1158;48.750;9.078;2022-08-21T00:26:56;6.40;;;4.17;;
2299;SDS011;1158;48.750;9.078;2022-08-21T00:29:23;5.40;;;3.63;;
2299;SDS011;1158;48.750;9.078;2022-08-21T00:31:50;5.47;;;3.93;;
2299;SDS011;1158;48.750;9.078;2022-08-21T00:34:17;4.27;;;3.70;;
2299;SDS011;1158;48.750;9.078;2022-08-21T00:36:45;7.40;;;4.20;;
2299;SDS011;1158;48.750;9.078;2022-08-21T00:39:11;5.97;;;4.03;;
2299;SDS011;1158;48.750;9.078;2022-08-21T00:41:38;5.20;;;3.80;;
2299;SDS011;1158;48.750;9.078;2022-08-21T00:44:06;5.60;;;4.10;;
2299;SDS011;1158;48.750;9.078;2022-08-21T00:46:35;7.00;;;3.80;;
2299;SDS011;1158;48.750;9.078;2022-08-21T00:49:02;5.93;;;4.03;;
2299;SDS011;1158;48.750;9.078;2022-08-21T00:51:32;5.53;;;4.13;;
2299;SDS011;1158;48.750;9.078;2022-08-21T00:54:05;9.43;;;4.93;;
2299;SDS011;1158;48.750;9.078;2022-08-21T00:56:32;5.93;;;3.87;;
2299;SDS011;1158;48.750;9.078;2022-08-21T00:58:59;10.50;;;4.60;;
2299;SDS011;1158;48.750;9.078;2022-08-21T01:01:28;8.07;;;4.73;;
2299;SDS011;1158;48.750;9.078;2022-08-21T01:03:55;6.37;;;4.97;;
2299;SDS011;1158;48.750;9.078;2022-08-21T01:06:22;10.10;;;4.23;;
2299;SDS011;1158;48.750;9.078;2022-08-21T01:08:48;8.30;;;3.87;;
2299;SDS011;1158;48.750;9.078;2022-08-21T01:11:17;8.47;;;5.40;;
2299;SDS011;1158;48.750;9.078;2022-08-21T01:13:44;9.23;;;5.00;;
2299;SDS011;1158;48.750;9.078;2022-08-21T01:16:13;11.83;;;4.87;;
2299;SDS011;1158;48.750;9.078;2022-08-21T01:18:43;8.17;;;5.37;;
2299;SDS011;1158;48.750;9.078;2022-08-21T01:21:13;7.50;;;5.50;;
2299;SDS011;1158;48.750;9.078;2022-08-21T01:23:43;10.70;;;5.70;;
2299;SDS011;1158;48.750;9.078;2022-08-21T01:26:11;9.80;;;6.10;;
2299;SDS011;1158;48.750;9.078;2022-08-21T01:28:42;11.40;;;5.97;;
2299;SDS011;1158;48.750;9.078;2022-08-21T01:31:11;6.60;;;4.80;;
2299;SDS011;1158;48.750;9.078;2022-08-21T01:33:40;7.80;;;5.00;;
2299;SDS011;1158;48.750;9.078;2022-08-21T01:36:07;5.13;;;4.10;;
2299;SDS011;1158;48.750;9.078;2022-08-21T01:38:35;10.03;;;5.37;;
2299;SDS011;1158;48.750;9.078;2022-08-21T01:41:02;6.40;;;4.27;;
2299;SDS011;1158;48.750;9.078;2022-08-21T01:43:29;9.87;;;5.13;;
2299;SDS011;1158;48.750;9.078;2022-08-21T01:45:55;11.40;;;5.57;;
2299;SDS011;1158;48.750;9.078;2022-08-21T01:48:22;12.40;;;5.47;;
2299;SDS011;1158;48.750;9.078;2022-08-21T01:50:49;13.30;;;7.07;;
2299;SDS011;1158;48.750;9.078;2022-08-21T01:53:15;8.53;;;5.67;;
2299;SDS011;1158;48.750;9.078;2022-08-21T01:55:43;8.53;;;4.77;;
2299;SDS011;1158;48.750;9.078;2022-08-21T01:58:10;9.83;;;6.73;;
2299;SDS011;1158;48.750;9.078;2022-08-21T02:00:37;12.30;;;6.10;;
2299;SDS011;1158;48.750;9.078;2022-08-21T02:03:04;8.67;;;5.77;;
2299;SDS011;1158;48.750;9.078;2022-08-21T02:05:31;11.03;;;5.50;;
2299;SDS011;1158;48.750;9.078;2022-08-21T02:07:57;8.77;;;5.90;;
2299;SDS011;1158;48.750;9.078;2022-08-21T02:10:26;5.50;;;4.17;;
2299;SDS011;1158;48.750;9.078;2022-08-21T02:12:57;6.07;;;4.63;;
2299;SDS011;1158;48.750;9.078;2022-08-21T02:15:24;6.03;;;4.00;;
2299;SDS011;1158;48.750;9.078;2022-08-21T02:17:52;5.00;;;4.00;;
2299;SDS011;1158;48.750;9.078;2022-08-21T02:20:21;8.80;;;4.90;;
2299;SDS011;1158;48.750;9.078;2022-08-21T02:22:50;7.00;;;5.37;;
2299;SDS011;1158;48.750;9.078;2022-08-21T02:25:17;9.23;;;5.70;;
2299;SDS011;1158;48.750;9.078;2022-08-21T02:27:45;7.43;;;4.90;;
2299;SDS011;1158;48.750;9.078;2022-08-21T02:30:16;10.87;;;5.50;;
2299;SDS011;1158;48.750;9.078;2022-08-21T02:32:44;10.03;;;4.83;;
2299;SDS011;1158;48.750;9.078;2022-08-21T02:35:11;9.93;;;5.60;;
2299;SDS011;1158;48.750;9.078;2022-08-21T02:37:45;14.30;;;6.10;;
2299;SDS011;1158;48.750;9.078;2022-08-21T02:40:15;8.93;;;5.70;;
2299;SDS011;1158;48.750;9.078;2022-08-21T02:42:43;8.97;;;6.30;;
2299;SDS011;1158;48.750;9.078;2022-08-21T02:45:10;9.03;;;5.33;;
2299;SDS011;1158;48.750;9.078;2022-08-21T02:47:39;11.30;;;6.07;;
2299;SDS011;1158;48.750;9.078;2022-08-21T02:50:06;11.23;;;7.47;;
2299;SDS011;1158;48.750;9.078;2022-08-21T02:52:33;13.63;;;8.20;;
2299;SDS011;1158;48.750;9.078;2022-08-21T02:55:01;7.63;;;5.87;;
2299;SDS011;1158;48.750;9.078;2022-08-21T02:57:28;9.07;;;5.17;;
2299;SDS011;1158;48.750;9.078;2022-08-21T02:59:57;7.53;;;5.20;;
2299;SDS011;1158;48.750;9.078;2022-08-21T03:02:23;9.50;;;5.77;;
2299;SDS011;1158;48.750;9.078;2022-08-21T03:04:51;11.03;;;6.30;;
2299;SDS011;1158;48.750;9.078;2022-08-21T03:07:18;10.30;;;6.77;;
2299;SDS011;1158;48.750;9.078;2022-08-21T03:09:45;8.83;;;6.00;;
2299;SDS011;1158;48.750;9.078;2022-08-21T03:12:11;7.53;;;5.57;;
2299;SDS011;1158;48.750;9.078;2022-08-21T03:14:38;6.60;;;4.87;;
2299;SDS011;1158;48.750;9.078;2022-08-21T03:17:05;7.50;;;5.80;;
2299;SDS011;1158;48.750;9.078;2022-08-21T03:19:32;10.83;;;6.30;;
2299;SDS011;1158;48.750;9.078;2022-08-21T03:22:00;6.90;;;5.47;;
2299;SDS011;1158;48.750;9.078;2022-08-21T03:24:27;9.17;;;6.10;;
2299;SDS011;1158;48.750;9.078;2022-08-21T03:26:54;8.27;;;5.30;;
2299;SDS011;1158;48.750;9.078;2022-08-21T03:29:21;9.63;;;6.20;;
2299;SDS011;1158;48.750;9.078;2022-08-21T03:31:47;7.83;;;5.27;;
2299;SDS011;1158;48.750;9.078;2022-08-21T03:34:14;8.60;;;5.57;;
2299;SDS011;1158;48.750;9.078;2022-08-21T03:36:41;9.57;;;5.90;;
2299;SDS011;1158;48.750;9.078;2022-08-21T03:39:09;8.57;;;5.23;;
2299;SDS011;1158;48.750;9.078;2022-08-21T03:41:36;9.80;;;5.33;;
2299;SDS011;1158;48.750;9.078;2022-08-21T03:44:03;8.03;;;6.20;;
2299;SDS011;1158;48.750;9.078;2022-08-21T03:46:29;8.77;;;6.00;;
2299;SDS011;1158;48.750;9.078;2022-08-21T03:48:56;8.20;;;6.10;;
2299;SDS011;1158;48.750;9.078;2022-08-21T03:51:23;8.90;;;5.87;;
2299;SDS011;1158;48.750;9.078;2022-08-21T03:53:49;11.50;;;6.00;;
2299;SDS011;1158;48.750;9.078;2022-08-21T03:56:17;12.63;;;5.50;;
2299;SDS011;1158;48.750;9.078;2022-08-21T03:58:44;9.37;;;5.20;;
2299;SDS011;1158;48.750;9.078;2022-08-21T04:01:11;6.23;;;4.73;;
2299;SDS011;1158;48.750;9.078;2022-08-21T04:03:38;7.77;;;4.90;;
2299;SDS011;1158;48.750;9.078;2022-08-21T04:06:05;7.20;;;4.73;;
2299;SDS011;1158;48.750;9.078;2022-08-21T04:08:32;6.60;;;5.70;;
2299;SDS011;1158;48.750;9.078;2022-08-21T04:11:00;9.17;;;5.73;;
2299;SDS011;1158;48.750;9.078;2022-08-21T04:13:28;7.30;;;5.00;;
2299;SDS011;1158;48.750;9.078;2022-08-21T04:15:55;8.90;;;5.43;;
2299;SDS011;1158;48.750;9.078;2022-08-21T04:18:23;9.37;;;5.30;;
2299;SDS011;1158;48.750;9.078;2022-08-21T04:20:50;9.67;;;5.57;;
2299;SDS011;1158;48.750;9.078;2022-08-21T04:23:19;12.27;;;6.67;;
2299;SDS011;1158;48.750;9.078;2022-08-21T04:25:46;9.63;;;6.87;;
2299;SDS011;1158;48.750;9.078;2022-08-21T04:28:13;9.20;;;6.07;;
2299;SDS011;1158;48.750;9.078;2022-08-21T04:30:41;6.87;;;5.17;;
2299;SDS011;1158;48.750;9.078;2022-08-21T04:33:08;8.90;;;6.17;;
2299;SDS011;1158;48.750;9.078;2022-08-21T04:35:35;8.20;;;5.50;;
2299;SDS011;1158;48.750;9.078;2022-08-21T04:38:01;11.87;;;5.90;;
2299;SDS011;1158;48.750;9.078;2022-08-21T04:40:28;9.17;;;5.60;;
2299;SDS011;1158;48.750;9.078;2022-08-21T04:42:55;11.50;;;6.10;;
2299;SDS011;1158;48.750;9.078;2022-08-21T04:45:25;6.80;;;5.70;;
2299;SDS011;1158;48.750;9.078;2022-08-21T04:47:57;8.50;;;6.13;;
2299;SDS011;1158;48.750;9.078;2022-08-21T04:50:26;11.90;;;6.23;;
2299;SDS011;1158;48.750;9.078;2022-08-21T04:52:57;12.40;;;6.80;;
2299;SDS011;1158;48.750;9.078;2022-08-21T04:55:25;8.00;;;5.67;;
2299;SDS011;1158;48.750;9.078;2022-08-21T04:57:53;9.60;;;6.17;;
2299;SDS011;1158;48.750;9.078;2022-08-21T05:00:20;10.10;;;6.17;;
2299;SDS011;1158;48.750;9.078;2022-08-21T05:02:50;11.70;;;6.57;;
2299;SDS011;1158;48.750;9.078;2022-08-21T05:05:22;8.50;;;5.50;;
2299;SDS011;1158;48.750;9.078;2022-08-21T05:07:49;8.00;;;5.93;;
2299;SDS011;1158;48.750;9.078;2022-08-21T05:10:17;7.27;;;5.60;;
2299;SDS011;1158;48.750;9.078;2022-08-21T05:12:44;7.37;;;5.73;;
2299;SDS011;1158;48.750;9.078;2022-08-21T05:15:11;7.80;;;5.90;;
2299;SDS011;1158;48.750;9.078;2022-08-21T05:17:38;11.33;;;6.30;;
2299;SDS011;1158;48.750;9.078;2022-08-21T05:20:05;11.53;;;5.83;;
2299;SDS011;1158;48.750;9.078;2022-08-21T05:22:34;9.53;;;5.60;;
2299;SDS011;1158;48.750;9.078;2022-08-21T05:25:01;7.90;;;5.50;;
2299;SDS011;1158;48.750;9.078;2022-08-21T05:27:27;9.53;;;6.60;;
2299;SDS011;1158;48.750;9.078;2022-08-21T05:29:55;5.80;;;4.90;;
2299;SDS011;1158;48.750;9.078;2022-08-21T05:32:22;8.87;;;5.10;;
2299;SDS011;1158;48.750;9.078;2022-08-21T05:34:49;9.07;;;5.30;;
2299;SDS011;1158;48.750;9.078;2022-08-21T05:37:16;7.47;;;5.27;;
2299;SDS011;1158;48.750;9.078;2022-08-21T05:39:44;7.07;;;4.33;;
2299;SDS011;1158;48.750;9.078;2022-08-21T05:42:11;5.33;;;3.77;;
2299;SDS011;1158;48.750;9.078;2022-08-21T05:44:38;6.10;;;3.37;;
2299;SDS011;1158;48.750;9.078;2022-08-21T05:47:05;6.07;;;3.23;;
2299;SDS011;1158;48.750;9.078;2022-08-21T05:49:33;3.93;;;2.67;;
2299;SDS011;1158;48.750;9.078;2022-08-21T05:52:00;4.10;;;3.17;;
2299;SDS011;1158;48.750;9.078;2022-08-21T05:54:27;3.67;;;2.60;;
2299;SDS011;1158;48.750;9.078;2022-08-21T05:56:55;5.13;;;2.73;;
2299;SDS011;1158;48.750;9.078;2022-08-21T05:59:23;5.20;;;2.93;;
2299;SDS011;1158;48.750;9.078;2022-08-21T06:01:49;4.97;;;3.30;;
2299;SDS011;1158;48.750;9.078;2022-08-21T06:04:17;5.87;;;3.27;;
2299;SDS011;1158;48.750;9.078;2022-08-21T06:06:44;5.40;;;3.13;;
2299;SDS011;1158;48.750;9.078;2022-08-21T06:09:12;10.47;;;2.50;;
2299;SDS011;1158;48.750;9.078;2022-08-21T06:11:39;4.20;;;2.70;;
2299;SDS011;1158;48.750;9.078;2022-08-21T06:14:07;5.00;;;3.10;;
2299;SDS011;1158;48.750;9.078;2022-08-21T06:16:33;4.07;;;2.50;;
2299;SDS011;1158;48.750;9.078;2022-08-21T06:19:00;3.43;;;2.20;;
2299;SDS011;1158;48.750;9.078;2022-08-21T06:21:26;4.27;;;2.73;;
2299;SDS011;1158;48.750;9.078;2022-08-21T06:23:53;4.00;;;2.70;;
2299;SDS011;1158;48.750;9.078;2022-08-21T06:26:20;4.17;;;2.37;;
2299;SDS011;1158;48.750;9.078;2022-08-21T06:28:48;3.90;;;2.43;;
2299;SDS011;1158;48.750;9.078;2022-08-21T06:31:17;4.23;;;2.50;;
2299;SDS011;1158;48.750;9.078;2022-08-21T06:33:45;5.13;;;2.43;;
2299;SDS011;1158;48.750;9.078;2022-08-21T06:36:13;3.57;;;2.37;;
2299;SDS011;1158;48.750;9.078;2022-08-21T06:38:40;3.77;;;2.70;;
2299;SDS011;1158;48.750;9.078;2022-08-21T06:41:07;3.80;;;2.50;;
2299;SDS011;1158;48.750;9.078;2022-08-21T06:43:34;3.93;;;2.57;;
2299;SDS011;1158;48.750;9.078;2022-08-21T06:46:01;3.53;;;2.23;;
2299;SDS011;1158;48.750;9.078;2022-08-21T06:48:29;6.70;;;3.70;;
2299;SDS011;1158;48.750;9.078;2022-08-21T06:50:58;9.27;;;4.40;;
2299;SDS011;1158;48.750;9.078;2022-08-21T06:53:25;8.40;;;4.10;;
2299;SDS011;1158;48.750;9.078;2022-08-21T06:55:52;5.17;;;3.07;;
2299;SDS011;1158;48.750;9.078;2022-08-21T06:58:19;5.10;;;3.13;;
2299;SDS011;1158;48.750;9.078;2022-08-21T07:00:48;7.47;;;3.73;;
2299;SDS011;1158;48.750;9.078;2022-08-21T07:03:18;5.60;;;3.57;;
2299;SDS011;1158;48.750;9.078;2022-08-21T07:05:47;8.73;;;4.10;;
2299;SDS011;1158;48.750;9.078;2022-08-21T07:08:14;4.87;;;3.60;;
2299;SDS011;1158;48.750;9.078;2022-08-21T07:10:42;9.57;;;4.27;;
2299;SDS011;1158;48.750;9.078;2022-08-21T07:13:09;8.63;;;4.57;;
2299;SDS011;1158;48.750;9.078;2022-08-21T07:15:36;7.13;;;3.67;;
2299;SDS011;1158;48.750;9.078;2022-08-21T07:18:03;12.10;;;4.70;;
2299;SDS011;1158;48.750;9.078;2022-08-21T07:20:30;9.53;;;4.77;;
2299;SDS011;1158;48.750;9.078;2022-08-21T07:22:59;11.73;;;4.50;;
2299;SDS011;1158;48.750;9.078;2022-08-21T07:25:29;10.53;;;4.47;;
2299;SDS011;1158;48.750;9.078;2022-08-21T07:27:56;9.53;;;4.77;;
2299;SDS011;1158;48.750;9.078;2022-08-21T07:30:23;6.53;;;4.03;;
2299;SDS011;1158;48.750;9.078;2022-08-21T07:32:49;6.70;;;3.87;;
2299;SDS011;1158;48.750;9.078;2022-08-21T07:35:16;6.90;;;3.67;;
2299;SDS011;1158;48.750;9.078;2022-08-21T07:37:43;4.00;;;2.67;;
2299;SDS011;1158;48.750;9.078;2022-08-21T07:40:12;6.23;;;3.83;;
2299;SDS011;1158;48.750;9.078;2022-08-21T07:42:39;7.17;;;3.97;;
2299;SDS011;1158;48.750;9.078;2022-08-21T07:45:07;6.83;;;3.80;;
2299;SDS011;1158;48.750;9.078;2022-08-21T07:47:35;6.67;;;3.80;;
2299;SDS011;1158;48.750;9.078;2022-08-21T07:50:03;8.67;;;4.20;;
2299;SDS011;1158;48.750;9.078;2022-08-21T07:52:31;6.17;;;3.30;;
2299;SDS011;1158;48.750;9.078;2022-08-21T07:54:58;7.33;;;4.27;;
2299;SDS011;1158;48.750;9.078;2022-08-21T07:57:26;6.97;;;3.80;;
2299;SDS011;1158;48.750;9.078;2022-08-21T07:59:53;6.20;;;3.90;;
2299;SDS011;1158;48.750;9.078;2022-08-21T08:02:23;7.33;;;4.10;;
2299;SDS011;1158;48.750;9.078;2022-08-21T08:04:51;7.97;;;3.40;;
2299;SDS011;1158;48.750;9.078;2022-08-21T08:07:18;8.13;;;3.17;;
2299;SDS011;1158;48.750;9.078;2022-08-21T08:09:45;5.67;;;3.30;;
2299;SDS011;1158;48.750;9.078;2022-08-21T08:12:12;5.63;;;3.77;;
2299;SDS011;1158;48.750;9.078;2022-08-21T08:14:40;5.93;;;3.40;;
2299;SDS011;1158;48.750;9.078;2022-08-21T08:17:07;7.83;;;3.87;;
2299;SDS011;1158;48.750;9.078;2022-08-21T08:19:34;6.73;;;4.00;;
2299;SDS011;1158;48.750;9.078;2022-08-21T08:22:00;6.93;;;4.03;;
2299;SDS011;1158;48.750;9.078;2022-08-21T08:24:27;5.80;;;3.63;;
2299;SDS011;1158;48.750;9.078;2022-08-21T08:26:54;5.23;;;3.30;;
2299;SDS011;1158;48.750;9.078;2022-08-21T08:29:22;5.13;;;3.37;;
2299;SDS011;1158;48.750;9.078;2022-08-21T08:31:50;5.97;;;3.70;;
2299;SDS011;1158;48.750;9.078;2022-08-21T08:34:16;6.60;;;3.53;;
2299;SDS011;1158;48.750;9.078;2022-08-21T08:36:44;6.50;;;3.40;;
2299;SDS011;1158;48.750;9.078;2022-08-21T08:39:11;6.70;;;3.47;;
2299;SDS011;1158;48.750;9.078;2022-08-21T08:41:38;11.67;;;4.10;;
2299;SDS011;1158;48.750;9.078;2022-08-21T08:44:07;8.30;;;3.13;;
2299;SDS011;1158;48.750;9.078;2022-08-21T08:46:35;9.77;;;3.90;;
2299;SDS011;1158;48.750;9.078;2022-08-21T08:49:08;5.70;;;3.77;;
2299;SDS011;1158;48.750;9.078;2022-08-21T08:51:40;6.10;;;3.47;;
2299;SDS011;1158;48.750;9.078;2022-08-21T08:54:13;5.23;;;3.30;;
2299;SDS011;1158;48.750;9.078;2022-08-21T08:56:44;8.53;;;3.60;;
2299;SDS011;1158;48.750;9.078;2022-08-21T08:59:13;8.67;;;3.97;;
2299;SDS011;1158;48.750;9.078;2022-08-21T09:01:44;5.57;;;3.40;;
2299;SDS011;1158;48.750;9.078;2022-08-21T09:04:12;6.33;;;3.30;;
2299;SDS011;1158;48.750;9.078;2022-08-21T09:06:49;5.73;;;3.60;;
2299;SDS011;1158;48.750;9.078;2022-08-21T09:09:26;9.53;;;3.60;;
2299;SDS011;1158;48.750;9.078;2022-08-21T09:12:02;6.80;;;3.40;;
2299;SDS011;1158;48.750;9.078;2022-08-21T09:14:41;4.83;;;3.03;;
2299;SDS011;1158;48.750;9.078;2022-08-21T09:17:19;8.83;;;3.30;;
2299;SDS011;1158;48.750;9.078;2022-08-21T09:19:59;5.90;;;3.30;;
2299;SDS011;1158;48.750;9.078;2022-08-21T09:22:36;4.93;;;2.93;;
2299;SDS011;1158;48.750;9.078;2022-08-21T09:25:12;8.47;;;3.40;;
2299;SDS011;1158;48.750;9.078;2022-08-21T09:27:45;6.57;;;3.30;;
2299;SDS011;1158;48.750;9.078;2022-08-21T09:30:13;10.63;;;4.10;;
2299;SDS011;1158;48.750;9.078;2022-08-21T09:32:41;6.73;;;3.53;;
2299;SDS011;1158;48.750;9.078;2022-08-21T09:35:10;7.33;;;3.80;;
2299;SDS011;1158;48.750;9.078;2022-08-21T09:37:47;5.43;;;4.00;;
2299;SDS011;1158;48.750;9.078;2022-08-21T09:40:32;6.47;;;3.70;;
2299;SDS011;1158;48.750;9.078;2022-08-21T09:43:04;7.87;;;3.70;;
2299;SDS011;1158;48.750;9.078;2022-08-21T09:45:32;7.63;;;3.60;;
2299;SDS011;1158;48.750;9.078;2022-08-21T09:48:10;7.13;;;3.83;;
2299;SDS011;1158;48.750;9.078;2022-08-21T09:50:39;7.63;;;4.00;;
2299;SDS011;1158;48.750;9.078;2022-08-21T09:53:14;7.90;;;4.27;;
2299;SDS011;1158;48.750;9.078;2022-08-21T09:55:46;7.57;;;4.30;;
2299;SDS011;1158;48.750;9.078;2022-08-21T09:58:35;8.43;;;4.00;;
2299;SDS011;1158;48.750;9.078;2022-08-21T10:01:04;7.60;;;4.00;;
2299;SDS011;1158;48.750;9.078;2022-08-21T10:03:32;7.47;;;3.90;;
2299;SDS011;1158;48.750;9.078;2022-08-21T10:06:00;6.90;;;3.83;;
2299;SDS011;1158;48.750;9.078;2022-08-21T10:08:31;7.30;;;3.73;;
2299;SDS011;1158;48.750;9.078;2022-08-21T10:11:01;6.47;;;4.30;;
2299;SDS011;1158;48.750;9.078;2022-08-21T10:13:44;7.70;;;4.13;;
2299;SDS011;1158;48.750;9.078;2022-08-21T10:16:22;7.50;;;4.20;;
2299;SDS011;1158;48.750;9.078;2022-08-21T10:19:06;6.77;;;3.93;;
2299;SDS011;1158;48.750;9.078;2022-08-21T10:21:43;6.50;;;3.73;;
2299;SDS011;1158;48.750;9.078;2022-08-21T10:24:22;10.27;;;5.17;;
2299;SDS011;1158;48.750;9.078;2022-08-21T10:27:04;7.53;;;4.03;;
2299;SDS011;1158;48.750;9.078;2022-08-21T10:29:47;6.27;;;3.87;;
2299;SDS011;1158;48.750;9.078;2022-08-21T10:35:12;7.07;;;4.17;;
2299;SDS011;1158;48.750;9.078;2022-08-21T10:37:48;7.60;;;4.00;;
2299;SDS011;1158;48.750;9.078;2022-08-21T10:40:26;6.93;;;3.40;;
2299;SDS011;1158;48.750;9.078;2022-08-21T10:43:03;6.63;;;3.53;;
2299;SDS011;1158;48.750;9.078;2022-08-21T10:45:42;5.60;;;3.50;;
2299;SDS011;1158;48.750;9.078;2022-08-21T10:48:20;5.80;;;3.50;;
2299;SDS011;1158;48.750;9.078;2022-08-21T10:50:52;8.13;;;3.77;;
2299;SDS011;1158;48.750;9.078;2022-08-21T10:53:40;7.73;;;4.57;;
2299;SDS011;1158;48.750;9.078;2022-08-21T10:56:15;6.43;;;4.13;;
2299;SDS011;1158;48.750;9.078;2022-08-21T10:58:45;7.33;;;3.90;;
2299;SDS011;1158;48.750;9.078;2022-08-21T11:01:24;7.03;;;3.80;;
2299;SDS011;1158;48.750;9.078;2022-08-21T11:04:00;7.73;;;4.40;;
2299;SDS011;1158;48.750;9.078;2022-08-21T11:06:36;7.90;;;3.60;;
2299;SDS011;1158;48.750;9.078;2022-08-21T11:09:11;10.37;;;4.20;;
2299;SDS011;1158;48.750;9.078;2022-08-21T11:11:39;5.67;;;3.20;;
2299;SDS011;1158;48.750;9.078;2022-08-21T11:14:13;6.20;;;3.80;;
2299;SDS011;1158;48.750;9.078;2022-08-21T11:16:48;10.33;;;4.30;;
2299;SDS011;1158;48.750;9.078;2022-08-21T11:19:24;6.80;;;3.60;;
2299;SDS011;1158;48.750;9.078;2022-08-21T11:21:56;7.30;;;3.50;;
2299;SDS011;1158;48.750;9.078;2022-08-21T11:24:39;7.77;;;4.40;;
2299;SDS011;1158;48.750;9.078;2022-08-21T11:27:20;7.50;;;3.83;;
2299;SDS011;1158;48.750;9.078;2022-08-21T11:29:52;10.30;;;4.40;;
2299;SDS011;1158;48.750;9.078;2022-08-21T11:32:27;7.37;;;4.03;;
2299;SDS011;1158;48.750;9.078;2022-08-21T11:35:08;7.70;;;4.37;;
2299;SDS011;1158;48.750;9.078;2022-08-21T11:37:45;10.00;;;5.17;;
2299;SDS011;1158;48.750;9.078;2022-08-21T11:40:27;9.20;;;4.07;;
2299;SDS011;1158;48.750;9.078;2022-08-21T11:43:02;5.20;;;3.77;;
2299;SDS011;1158;48.750;9.078;2022-08-21T11:45:39;5.77;;;3.70;;
2299;SDS011;1158;48.750;9.078;2022-08-21T11:48:13;6.97;;;4.13;;
2299;SDS011;1158;48.750;9.078;2022-08-21T11:50:49;7.13;;;4.30;;
2299;SDS011;1158;48.750;9.078;2022-08-21T11:53:18;9.07;;;3.60;;
2299;SDS011;1158;48.750;9.078;2022-08-21T11:55:52;7.43;;;4.53;;
2299;SDS011;1158;48.750;9.078;2022-08-21T11:58:23;7.80;;;3.70;;
2299;SDS011;1158;48.750;9.078;2022-08-21T12:00:54;8.43;;;4.10;;
2299;SDS011;1158;48.750;9.078;2022-08-21T12:03:23;7.73;;;3.87;;
2299;SDS011;1158;48.750;9.078;2022-08-21T12:05:54;9.03;;;4.03;;
2299;SDS011;1158;48.750;9.078;2022-08-21T12:08:27;9.70;;;4.50;;
2299;SDS011;1158;48.750;9.078;2022-08-21T12:11:01;8.20;;;4.10;;
2299;SDS011;1158;48.750;9.078;2022-08-21T12:13:31;8.93;;;3.87;;
2299;SDS011;1158;48.750;9.078;2022-08-21T12:16:06;7.80;;;4.27;;
2299;SDS011;1158;48.750;9.078;2022-08-21T12:18:34;7.53;;;4.90;;
2299;SDS011;1158;48.750;9.078;2022-08-21T12:21:04;12.13;;;7.13;;
2299;SDS011;1158;48.750;9.078;2022-08-21T12:23:44;8.07;;;4.63;;
2299;SDS011;1158;48.750;9.078;2022-08-21T12:26:24;7.13;;;3.90;;
2299;SDS011;1158;48.750;9.078;2022-08-21T12:29:14;9.83;;;4.60;;
2299;SDS011;1158;48.750;9.078;2022-08-21T12:31:49;11.00;;;4.63;;
2299;SDS011;1158;48.750;9.078;2022-08-21T12:34:18;10.27;;;5.43;;
2299;SDS011;1158;48.750;9.078;2022-08-21T12:36:49;8.03;;;4.60;;
2299;SDS011;1158;48.750;9.078;2022-08-21T12:39:22;6.87;;;3.67;;
2299;SDS011;1158;48.750;9.078;2022-08-21T12:41:53;9.50;;;5.00;;
2299;SDS011;1158;48.750;9.078;2022-08-21T12:44:31;8.73;;;4.67;;
2299;SDS011;1158;48.750;9.078;2022-08-21T12:47:05;10.33;;;4.37;;
2299;SDS011;1158;48.750;9.078;2022-08-21T12:49:41;6.00;;;3.93;;
2299;SDS011;1158;48.750;9.078;2022-08-21T12:52:19;9.87;;;5.07;;
2299;SDS011;1158;48.750;9.078;2022-08-21T12:54:48;5.50;;;3.90;;
2299;SDS011;1158;48.750;9.078;2022-08-21T12:57:20;7.20;;;4.17;;
2299;SDS011;1158;48.750;9.078;2022-08-21T12:59:53;8.33;;;4.13;;
2299;SDS011;1158;48.750;9.078;2022-08-21T13:02:22;7.30;;;4.07;;
2299;SDS011;1158;48.750;9.078;2022-08-21T13:04:50;6.03;;;3.67;;
2299;SDS011;1158;48.750;9.078;2022-08-21T13:07:22;5.73;;;4.17;;
2299;SDS011;1158;48.750;9.078;2022-08-21T13:09:55;5.13;;;3.50;;
2299;SDS011;1158;48.750;9.078;2022-08-21T13:12:25;6.17;;;3.73;;
2299;SDS011;1158;48.750;9.078;2022-08-21T13:14:55;7.20;;;3.60;;
2299;SDS011;1158;48.750;9.078;2022-08-21T13:17:24;6.03;;;3.50;;
2299;SDS011;1158;48.750;9.078;2022-08-21T13:19:53;7.53;;;4.10;;
2299;SDS011;1158;48.750;9.078;2022-08-21T13:22:21;5.67;;;3.53;;
2299;SDS011;1158;48.750;9.078;2022-08-21T13:24:49;8.07;;;4.57;;
2299;SDS011;1158;48.750;9.078;2022-08-21T13:27:20;5.10;;;3.30;;
2299;SDS011;1158;48.750;9.078;2022-08-21T13:29:59;6.53;;;3.70;;
2299;SDS011;1158;48.750;9.078;2022-08-21T13:32:28;6.00;;;3.33;;
2299;SDS011;1158;48.750;9.078;2022-08-21T13:34:59;12.50;;;3.97;;
2299;SDS011;1158;48.750;9.078;2022-08-21T13:37:33;7.43;;;3.70;;
2299;SDS011;1158;48.750;9.078;2022-08-21T13:40:01;7.20;;;3.93;;
2299;SDS011;1158;48.750;9.078;2022-08-21T13:42:32;6.00;;;3.80;;
2299;SDS011;1158;48.750;9.078;2022-08-21T13:45:00;7.10;;;3.57;;
2299;SDS011;1158;48.750;9.078;2022-08-21T13:47:27;6.90;;;3.63;;
2299;SDS011;1158;48.750;9.078;2022-08-21T13:49:54;5.40;;;3.93;;
2299;SDS011;1158;48.750;9.078;2022-08-21T13:52:21;7.53;;;3.60;;
2299;SDS011;1158;48.750;9.078;2022-08-21T13:54:53;5.00;;;3.43;;
2299;SDS011;1158;48.750;9.078;2022-08-21T13:57:24;6.47;;;3.97;;
2299;SDS011;1158;48.750;9.078;2022-08-21T13:59:53;7.17;;;3.60;;
2299;SDS011;1158;48.750;9.078;2022-08-21T14:02:38;5.93;;;3.87;;
2299;SDS011;1158;48.750;9.078;2022-08-21T14:05:10;7.20;;;3.50;;
2299;SDS011;1158;48.750;9.078;2022-08-21T14:07:42;9.83;;;4.60;;
2299;SDS011;1158;48.750;9.078;2022-08-21T14:10:11;6.90;;;3.80;;
2299;SDS011;1158;48.750;9.078;2022-08-21T14:12:40;6.40;;;3.37;;
2299;SDS011;1158;48.750;9.078;2022-08-21T14:15:12;7.33;;;3.93;;
2299;SDS011;1158;48.750;9.078;2022-08-21T14:17:40;6.90;;;3.80;;
2299;SDS011;1158;48.750;9.078;2022-08-21T14:20:08;6.13;;;3.50;;
2299;SDS011;1158;48.750;9.078;2022-08-21T14:22:38;5.23;;;3.30;;
2299;SDS011;1158;48.750;9.078;2022-08-21T14:25:08;6.53;;;3.70;;
2299;SDS011;1158;48.750;9.078;2022-08-21T14:27:38;5.90;;;3.50;;
2299;SDS011;1158;48.750;9.078;2022-08-21T14:30:13;6.40;;;3.70;;
2299;SDS011;1158;48.750;9.078;2022-08-21T14:32:45;6.23;;;3.80;;
2299;SDS011;1158;48.750;9.078;2022-08-21T14:35:12;8.30;;;3.50;;
2299;SDS011;1158;48.750;9.078;2022-08-21T14:37:41;6.10;;;3.60;;
2299;SDS011;1158;48.750;9.078;2022-08-21T14:40:09;7.20;;;2.90;;
2299;SDS011;1158;48.750;9.078;2022-08-21T14:42:37;6.17;;;3.13;;
2299;SDS011;1158;48.750;9.078;2022-08-21T14:45:07;5.83;;;3.20;;
2299;SDS011;1158;48.750;9.078;2022-08-21T14:47:39;10.93;;;3.80;;
2299;SDS011;1158;48.750;9.078;2022-08-21T14:50:08;3.97;;;3.37;;
2299;SDS011;1158;48.750;9.078;2022-08-21T14:52:35;7.03;;;3.90;;
2299;SDS011;1158;48.750;9.078;2022-08-21T14:55:02;5.10;;;3.30;;
2299;SDS011;1158;48.750;9.078;2022-08-21T14:57:29;7.70;;;4.17;;
2299;SDS011;1158;48.750;9.078;2022-08-21T14:59:57;7.63;;;4.00;;
2299;SDS011;1158;48.750;9.078;2022-08-21T15:02:25;6.40;;;3.47;;
2299;SDS011;1158;48.750;9.078;2022-08-21T15:04:52;4.90;;;3.13;;
2299;SDS011;1158;48.750;9.078;2022-08-21T15:07:19;6.07;;;3.60;;
2299;SDS011;1158;48.750;9.078;2022-08-21T15:09:45;5.53;;;3.57;;
2299;SDS011;1158;48.750;9.078;2022-08-21T15:12:12;5.77;;;3.50;;
2299;SDS011;1158;48.750;9.078;2022-08-21T15:14:40;6.40;;;4.03;;
2299;SDS011;1158;48.750;9.078;2022-08-21T15:17:07;6.00;;;4.03;;
2299;SDS011;1158;48.750;9.078;2022-08-21T15:19:37;7.60;;;3.77;;
2299;SDS011;1158;48.750;9.078;2022-08-21T15:22:04;4.97;;;3.53;;
2299;SDS011;1158;48.750;9.078;2022-08-21T15:24:31;6.63;;;3.40;;
2299;SDS011;1158;48.750;9.078;2022-08-21T15:26:58;6.97;;;2.97;;
2299;SDS011;1158;48.750;9.078;2022-08-21T15:29:26;6.23;;;3.60;;
2299;SDS011;1158;48.750;9.078;2022-08-21T15:31:55;5.30;;;3.70;;